createdAt,value
2018-05-08T00:01:35.976Z,94.80
2018-05-08T00:04:04.872Z,94.80
2018-05-08T00:06:34.557Z,94.00
2018-05-08T00:11:56.055Z,94.20
2018-05-08T00:14:24.968Z,94.20
2018-05-08T00:16:54.749Z,94.30
2018-05-08T00:19:23.564Z,94.30
2018-05-08T00:21:52.491Z,94.30
2018-05-08T00:24:21.391Z,94.30
2018-05-08T00:26:51.039Z,94.50
2018-05-08T00:29:19.937Z,94.50
2018-05-08T00:31:48.847Z,94.40
2018-05-08T00:34:17.744Z,94.30
2018-05-08T00:36:46.619Z,94.20
2018-05-08T00:39:15.515Z,94.30
2018-05-08T00:41:44.428Z,94.00
2018-05-08T00:44:14.064Z,93.80
2018-05-08T00:46:42.940Z,93.70
2018-05-08T00:49:11.851Z,93.70
2018-05-08T00:51:40.725Z,93.70
2018-05-08T00:54:09.607Z,93.80
2018-05-08T00:56:38.521Z,93.60
2018-05-08T00:59:07.399Z,93.60
2018-05-08T01:01:36.272Z,93.70
2018-05-08T01:04:05.167Z,93.70
2018-05-08T01:06:34.087Z,93.80
2018-05-08T01:09:03.003Z,93.70
2018-05-08T01:11:31.888Z,94.00
2018-05-08T01:14:00.816Z,93.60
2018-05-08T01:16:30.480Z,93.90
2018-05-08T01:18:59.371Z,93.70
2018-05-08T01:21:28.263Z,93.90
2018-05-08T01:23:57.136Z,93.80
2018-05-08T01:26:26.796Z,93.60
2018-05-08T01:28:55.667Z,93.60
2018-05-08T01:31:24.571Z,93.60
2018-05-08T01:33:53.434Z,93.50
2018-05-08T01:36:22.302Z,93.60
2018-05-08T01:38:52.250Z,93.60
2018-05-08T01:41:21.132Z,93.50
2018-05-08T01:43:50.012Z,93.50
2018-05-08T01:46:18.907Z,93.60
2018-05-08T01:48:47.808Z,93.50
2018-05-08T01:51:16.727Z,93.40
2018-05-08T01:53:45.648Z,93.50
2018-05-08T01:56:14.522Z,93.70
2018-05-08T01:58:43.402Z,93.80
2018-05-08T02:01:12.313Z,93.70
2018-05-08T02:03:41.948Z,93.60
2018-05-08T02:06:10.843Z,93.60
2018-05-08T02:08:39.743Z,93.30
2018-05-08T02:11:08.674Z,93.40
2018-05-08T02:13:37.544Z,93.10
2018-05-08T02:16:06.429Z,93.50
2018-05-08T02:18:35.324Z,93.70
2018-05-08T02:21:04.215Z,93.70
2018-05-08T02:23:33.879Z,93.50
2018-05-08T02:26:02.783Z,93.50
2018-05-08T02:28:31.665Z,93.60
2018-05-08T02:31:01.304Z,93.60
2018-05-08T02:33:30.220Z,93.60
2018-05-08T02:35:59.864Z,93.90
2018-05-08T02:38:28.764Z,93.90
2018-05-08T02:40:57.672Z,94.20
2018-05-08T02:43:27.320Z,94.40
2018-05-08T02:45:56.187Z,94.40
2018-05-08T02:48:25.096Z,94.60
2018-05-08T02:50:54.089Z,94.80
2018-05-08T02:53:23.785Z,95.30
2018-05-08T02:55:53.425Z,95.50
2018-05-08T02:58:22.299Z,95.50
2018-05-08T03:00:51.191Z,95.60
2018-05-08T03:03:20.054Z,95.70
2018-05-08T03:05:48.920Z,95.60
2018-05-08T03:08:17.819Z,95.70
2018-05-08T03:10:46.703Z,95.80
2018-05-08T03:13:15.612Z,95.70
2018-05-08T03:15:45.260Z,95.70
2018-05-08T03:18:14.143Z,95.70
2018-05-08T03:20:43.040Z,95.80
2018-05-08T03:23:12.699Z,95.80
2018-05-08T03:25:41.569Z,95.60
2018-05-08T03:28:10.462Z,95.60
2018-05-08T03:30:39.373Z,95.60
2018-05-08T03:33:09.005Z,95.70
2018-05-08T03:35:37.876Z,95.70
2018-05-08T03:38:06.775Z,95.60
2018-05-08T03:40:35.679Z,95.70
2018-05-08T03:43:05.315Z,96.00
2018-05-08T03:45:34.196Z,96.00
2018-05-08T03:48:03.078Z,96.10
2018-05-08T03:50:32.004Z,95.90
2018-05-08T03:53:01.680Z,95.80
2018-05-08T03:55:31.332Z,95.80
2018-05-08T03:58:00.199Z,95.80
2018-05-08T04:00:47.015Z,95.70
2018-05-08T04:03:33.811Z,95.60
2018-05-08T04:09:25.513Z,94.00
2018-05-08T04:11:54.438Z,93.30
2018-05-08T04:14:23.306Z,92.10
2018-05-08T04:16:52.199Z,91.10
2018-05-08T04:19:21.075Z,90.40
2018-05-08T04:21:49.976Z,90.20
2018-05-08T04:24:18.851Z,90.10
2018-05-08T04:26:47.728Z,90.30
2018-05-08T04:29:17.391Z,88.30
2018-05-08T04:31:46.277Z,87.90
2018-05-08T04:34:15.187Z,88.00
2018-05-08T04:36:44.835Z,86.80
2018-05-08T04:39:13.703Z,86.80
2018-05-08T04:41:42.589Z,87.20
2018-05-08T04:44:11.459Z,85.90
2018-05-08T04:46:40.373Z,84.50
2018-05-08T04:49:10.013Z,86.50
2018-05-08T04:51:38.946Z,86.50
2018-05-08T04:54:08.598Z,87.40
2018-05-08T04:56:37.474Z,87.40
2018-05-08T04:59:06.393Z,88.00
2018-05-08T05:01:36.036Z,89.70
2018-05-08T05:04:04.941Z,89.70
2018-05-08T05:06:33.857Z,88.70
2018-05-08T05:09:02.750Z,87.90
2018-05-08T05:11:31.620Z,87.50
2018-05-08T05:14:00.519Z,87.70
2018-05-08T05:16:30.823Z,85.90
2018-05-08T05:18:59.738Z,85.80
2018-05-08T05:21:29.401Z,85.90
2018-05-08T05:23:58.285Z,85.90
2018-05-08T05:26:27.179Z,85.10
2018-05-08T05:28:56.822Z,82.50
2018-05-08T05:31:25.750Z,82.40
2018-05-08T05:33:55.425Z,78.90
2018-05-08T05:36:24.304Z,78.90
2018-05-08T05:38:54.164Z,74.10
2018-05-08T05:41:23.056Z,74.10
2018-05-08T05:43:52.387Z,73.00
2018-05-08T05:46:21.260Z,71.20
2018-05-08T05:48:50.127Z,68.10
2018-05-08T05:51:19.032Z,66.60
2018-05-08T05:53:47.906Z,67.60
2018-05-08T05:56:16.780Z,63.80
2018-05-08T05:58:45.695Z,61.80
2018-05-08T06:01:14.587Z,60.00
2018-05-08T06:03:44.229Z,58.60
2018-05-08T06:06:13.161Z,58.60
2018-05-08T06:08:42.808Z,58.40
2018-05-08T06:11:11.711Z,58.40
2018-05-08T06:13:40.590Z,55.90
2018-05-08T06:16:09.504Z,55.80
2018-05-08T06:18:38.407Z,53.10
2018-05-08T06:21:07.295Z,50.40
2018-05-08T06:23:36.196Z,51.10
2018-05-08T06:26:05.845Z,50.90
2018-05-08T06:28:34.783Z,50.20
2018-05-08T06:31:03.650Z,48.40
2018-05-08T06:33:33.321Z,47.20
2018-05-08T06:36:02.192Z,47.10
2018-05-08T06:38:31.096Z,46.40
2018-05-08T06:41:00.737Z,46.70
2018-05-08T06:43:29.616Z,46.70
2018-05-08T06:45:58.523Z,44.30
2018-05-08T06:48:28.183Z,40.30
2018-05-08T06:50:57.164Z,40.30
2018-05-08T06:53:26.020Z,41.90
2018-05-08T06:55:54.897Z,42.20
2018-05-08T06:58:24.581Z,40.50
2018-05-08T07:00:53.472Z,40.50
2018-05-08T07:03:22.418Z,40.80
2018-05-08T07:05:51.298Z,39.70
2018-05-08T07:08:20.179Z,38.70
2018-05-08T07:10:49.082Z,37.90
2018-05-08T07:13:17.969Z,38.60
2018-05-08T07:15:46.964Z,37.90
2018-05-08T07:18:15.822Z,37.20
2018-05-08T07:20:44.704Z,41.60
2018-05-08T07:23:13.606Z,39.40
2018-05-08T07:25:42.484Z,38.30
2018-05-08T07:28:11.350Z,36.90
2018-05-08T07:30:41.054Z,35.70
2018-05-08T07:33:09.963Z,35.80
2018-05-08T07:35:38.841Z,36.90
2018-05-08T07:38:07.744Z,38.80
2018-05-08T07:40:37.416Z,33.90
2018-05-08T07:43:06.328Z,33.80
2018-05-08T07:45:35.991Z,34.30
2018-05-08T07:48:04.870Z,34.30
2018-05-08T07:50:33.775Z,38.00
2018-05-08T07:53:03.449Z,33.30
2018-05-08T07:55:32.327Z,33.30
2018-05-08T07:58:02.007Z,35.70
2018-05-08T08:00:30.916Z,35.70
2018-05-08T08:02:59.800Z,34.20
2018-05-08T08:05:28.699Z,37.40
2018-05-08T08:07:57.589Z,37.70
2018-05-08T08:10:26.484Z,37.00
2018-05-08T08:12:55.430Z,38.70
2018-05-08T08:15:24.329Z,35.80
2018-05-08T08:17:53.203Z,37.80
2018-05-08T08:20:22.095Z,38.00
2018-05-08T08:22:51.072Z,37.90
2018-05-08T08:25:20.076Z,37.30
2018-05-08T08:27:48.947Z,38.70
2018-05-08T08:30:17.832Z,39.40
2018-05-08T08:32:47.360Z,36.10
2018-05-08T08:35:16.227Z,36.10
2018-05-08T08:37:45.140Z,38.90
2018-05-08T08:40:14.023Z,41.50
2018-05-08T08:42:42.888Z,41.50
2018-05-08T08:45:12.568Z,39.40
2018-05-08T08:47:41.520Z,39.00
2018-05-08T08:50:10.399Z,36.40
2018-05-08T08:52:39.275Z,35.90
2018-05-08T08:55:08.195Z,35.90
2018-05-08T08:57:37.848Z,36.30
2018-05-08T09:00:06.741Z,36.30
2018-05-08T09:02:35.675Z,37.30
2018-05-08T09:05:04.583Z,37.20
2018-05-08T09:07:33.465Z,36.20
2018-05-08T09:10:02.370Z,35.20
2018-05-08T09:12:32.043Z,39.80
2018-05-08T09:15:01.915Z,39.60
2018-05-08T09:17:30.807Z,39.60
2018-05-08T09:19:59.689Z,39.00
2018-05-08T09:22:28.599Z,37.90
2018-05-08T09:24:57.473Z,39.10
2018-05-08T09:27:26.374Z,36.40
2018-05-08T09:29:55.289Z,41.40
2018-05-08T09:32:24.164Z,40.00
2018-05-08T09:34:53.065Z,42.60
2018-05-08T09:37:21.955Z,39.90
2018-05-08T09:39:50.840Z,38.60
2018-05-08T09:42:19.715Z,36.30
2018-05-08T09:44:48.667Z,38.50
2018-05-08T09:47:17.540Z,39.60
2018-05-08T09:49:46.415Z,39.70
2018-05-08T09:52:15.312Z,40.40
2018-05-08T09:54:44.215Z,40.20
2018-05-08T09:57:13.104Z,39.10
2018-05-08T09:59:42.139Z,40.70
2018-05-08T10:02:11.055Z,40.20
2018-05-08T10:04:39.935Z,40.90
2018-05-08T10:07:08.821Z,40.00
2018-05-08T10:09:38.513Z,39.90
2018-05-08T10:12:07.383Z,39.90
2018-05-08T10:14:36.295Z,39.80
2018-05-08T10:17:05.187Z,41.20
2018-05-08T10:19:34.092Z,39.80
2018-05-08T10:22:03.013Z,40.00
2018-05-08T10:24:31.881Z,45.20
2018-05-08T10:27:01.515Z,42.00
2018-05-08T10:29:30.410Z,42.00
2018-05-08T10:31:59.303Z,40.60
2018-05-08T10:34:28.203Z,42.60
2018-05-08T10:36:57.071Z,44.60
2018-05-08T10:39:26.709Z,43.30
2018-05-08T10:41:56.384Z,40.40
2018-05-08T10:44:25.274Z,40.40
2018-05-08T10:46:54.159Z,40.70
2018-05-08T10:49:23.059Z,38.30
2018-05-08T10:51:51.983Z,41.30
2018-05-08T10:54:20.857Z,36.40
2018-05-08T10:56:49.754Z,39.20
2018-05-08T10:59:18.659Z,39.30
2018-05-08T11:01:47.611Z,36.50
2018-05-08T11:04:16.439Z,38.20
2018-05-08T11:06:45.335Z,40.00
2018-05-08T11:09:14.212Z,38.80
2018-05-08T11:11:43.088Z,36.40
2018-05-08T11:14:11.999Z,37.70
2018-05-08T11:16:40.879Z,41.70
2018-05-08T11:19:09.757Z,37.20
2018-05-08T11:21:38.662Z,39.00
2018-05-08T11:24:07.526Z,39.70
2018-05-08T11:26:37.389Z,40.00
2018-05-08T11:29:06.970Z,37.50
2018-05-08T11:31:35.862Z,37.50
2018-05-08T11:34:04.759Z,39.00
2018-05-08T11:36:34.384Z,38.20
2018-05-08T11:39:03.287Z,38.10
2018-05-08T11:41:32.178Z,40.80
2018-05-08T11:44:01.067Z,40.50
2018-05-08T11:46:29.959Z,40.40
2018-05-08T11:48:59.591Z,40.70
2018-05-08T11:51:28.472Z,40.70
2018-05-08T11:53:57.341Z,42.30
2018-05-08T11:56:26.234Z,43.00
2018-05-08T11:58:55.104Z,42.00
2018-05-08T12:01:24.011Z,41.10
2018-05-08T12:03:53.668Z,43.70
2018-05-08T12:06:22.592Z,43.60
2018-05-08T12:08:52.255Z,42.00
2018-05-08T12:11:21.123Z,42.00
2018-05-08T12:13:50.016Z,42.70
2018-05-08T12:16:18.908Z,42.50
2018-05-08T12:18:48.580Z,42.30
2018-05-08T12:21:17.460Z,42.30
2018-05-08T12:23:47.100Z,43.30
2018-05-08T12:26:16.006Z,43.30
2018-05-08T12:28:44.875Z,42.60
2018-05-08T12:31:13.739Z,43.40
2018-05-08T12:33:42.633Z,44.50
2018-05-08T12:36:11.619Z,45.80
2018-05-08T12:38:40.432Z,43.80
2018-05-08T12:41:09.311Z,45.30
2018-05-08T12:43:38.219Z,45.10
2018-05-08T12:46:07.108Z,45.90
2018-05-08T12:48:35.978Z,45.20
2018-05-08T12:51:04.868Z,45.60
2018-05-08T12:53:34.516Z,45.60
2018-05-08T12:56:03.407Z,45.60
2018-05-08T12:58:32.307Z,45.70
2018-05-08T13:01:01.184Z,45.70
2018-05-08T13:03:30.094Z,46.90
2018-05-08T13:05:58.971Z,46.70
2018-05-08T13:08:27.857Z,45.00
2018-05-08T13:10:56.824Z,45.70
2018-05-08T13:13:25.699Z,46.80
2018-05-08T13:15:54.704Z,45.20
2018-05-08T13:18:23.664Z,44.40
2018-05-08T13:20:53.264Z,44.10
2018-05-08T13:23:22.218Z,44.10
2018-05-08T13:25:51.144Z,45.00
2018-05-08T13:28:20.021Z,44.10
2018-05-08T13:30:48.935Z,45.00
2018-05-08T13:33:18.609Z,45.50
2018-05-08T13:35:48.493Z,45.40
2018-05-08T13:38:17.836Z,45.40
2018-05-08T13:40:46.732Z,43.20
2018-05-08T13:43:15.627Z,44.40
2018-05-08T13:45:44.496Z,44.60
2018-05-08T13:48:13.376Z,44.90
2018-05-08T13:50:42.301Z,44.10
2018-05-08T13:53:11.168Z,44.70
2018-05-08T13:55:40.060Z,45.30
2018-05-08T13:58:08.976Z,43.90
2018-05-08T14:00:37.904Z,42.40
2018-05-08T14:03:06.807Z,44.20
2018-05-08T14:05:35.675Z,41.40
2018-05-08T14:08:04.571Z,42.50
2018-05-08T14:10:33.468Z,42.20
2018-05-08T14:13:03.148Z,45.80
2018-05-08T14:15:32.126Z,45.80
2018-05-08T14:18:00.975Z,46.80
2018-05-08T14:20:29.839Z,46.40
2018-05-08T14:22:58.708Z,47.00
2018-05-08T14:25:27.677Z,47.20
2018-05-08T14:27:56.560Z,47.90
2018-05-08T14:30:25.450Z,47.80
2018-05-08T14:32:54.319Z,47.90
2018-05-08T14:35:23.220Z,48.90
2018-05-08T14:37:52.091Z,48.90
2018-05-08T14:40:20.975Z,48.90
2018-05-08T14:42:49.879Z,49.20
2018-05-08T14:45:18.748Z,50.00
2018-05-08T14:47:48.381Z,50.80
2018-05-08T14:50:17.275Z,50.80
2018-05-08T14:52:46.143Z,50.90
2018-05-08T14:55:15.016Z,51.70
2018-05-08T14:57:43.917Z,52.10
2018-05-08T15:00:12.843Z,50.20
2018-05-08T15:02:41.743Z,50.20
2018-05-08T15:05:10.613Z,51.10
2018-05-08T15:07:39.476Z,53.20
2018-05-08T15:10:08.403Z,54.90
2018-05-08T15:12:38.043Z,57.30
2018-05-08T15:15:06.922Z,57.30
2018-05-08T15:17:35.823Z,57.60
2018-05-08T15:20:04.760Z,58.60
2018-05-08T15:22:33.631Z,58.70
2018-05-08T15:25:02.523Z,59.10
2018-05-08T15:27:31.435Z,59.10
2018-05-08T15:30:00.328Z,58.10
2018-05-08T15:32:30.011Z,56.40
2018-05-08T15:34:59.657Z,56.70
2018-05-08T15:37:28.524Z,56.60
2018-05-08T15:39:57.431Z,58.00
2018-05-08T15:42:26.307Z,58.20
2018-05-08T15:44:55.183Z,56.30
2018-05-08T15:47:24.153Z,56.10
2018-05-08T15:49:52.984Z,56.70
2018-05-08T15:52:21.886Z,56.30
2018-05-08T15:54:50.760Z,55.60
2018-05-08T15:57:19.639Z,56.60
2018-05-08T15:59:48.583Z,55.90
2018-05-08T16:02:17.496Z,56.30
2018-05-08T16:04:46.391Z,56.60
2018-05-08T16:07:15.261Z,58.00
2018-05-08T16:09:44.214Z,59.80
2018-05-08T16:12:13.088Z,62.40
2018-05-08T16:14:42.011Z,64.40
2018-05-08T16:17:11.676Z,68.30
2018-05-08T16:19:40.574Z,68.30
2018-05-08T16:22:10.237Z,74.40
2018-05-08T16:24:39.460Z,74.30
2018-05-08T16:27:09.103Z,77.90
2018-05-08T16:29:37.987Z,77.90
2018-05-08T16:32:06.888Z,79.10
2018-05-08T16:34:36.528Z,83.00
2018-05-08T16:37:05.431Z,82.80
2018-05-08T16:39:34.399Z,81.60
2018-05-08T16:42:04.022Z,81.90
2018-05-08T16:44:33.018Z,81.90
2018-05-08T16:47:01.929Z,82.30
2018-05-08T16:49:30.795Z,83.70
2018-05-08T16:51:59.662Z,85.00
2018-05-08T16:54:28.564Z,85.90
2018-05-08T16:56:57.451Z,86.70
2018-05-08T16:59:27.110Z,86.50
2018-05-08T17:01:55.994Z,86.50
2018-05-08T17:04:24.920Z,85.80
2018-05-08T17:06:54.559Z,87.20
2018-05-08T17:09:23.456Z,87.20
2018-05-08T17:11:52.345Z,87.60
2018-05-08T17:14:21.231Z,88.10
2018-05-08T17:16:50.479Z,88.00
2018-05-08T17:19:19.434Z,88.30
2018-05-08T17:21:48.273Z,88.00
2018-05-08T17:24:17.930Z,88.50
2018-05-08T17:26:46.859Z,88.50
2018-05-08T17:29:16.156Z,88.60
2018-05-08T17:31:45.045Z,88.80
2018-05-08T17:34:13.931Z,89.60
2018-05-08T17:36:42.831Z,90.00
2018-05-08T17:39:11.707Z,90.30
2018-05-08T17:41:40.619Z,90.40
2018-05-08T17:44:09.479Z,90.60
2018-05-08T17:46:38.365Z,90.70
2018-05-08T17:49:08.023Z,90.50
2018-05-08T17:51:37.051Z,90.50
2018-05-08T17:54:05.965Z,90.40
2018-05-08T17:56:34.854Z,90.30
2018-05-08T17:59:03.740Z,90.20
2018-05-08T18:01:32.639Z,90.00
2018-05-08T18:04:01.602Z,89.80
2018-05-08T18:06:30.438Z,89.80
2018-05-08T18:08:59.423Z,89.70
2018-05-08T18:11:28.867Z,90.00
2018-05-08T18:13:57.735Z,90.10
2018-05-08T18:16:26.637Z,90.20
2018-05-08T18:18:55.523Z,90.60
2018-05-08T18:21:24.394Z,90.80
2018-05-08T18:23:53.297Z,91.10
2018-05-08T18:26:22.194Z,91.40
2018-05-08T18:28:51.820Z,91.80
2018-05-08T18:31:20.944Z,91.80
2018-05-08T18:33:49.852Z,91.90
2018-05-08T18:36:19.056Z,92.10
2018-05-08T18:38:48.468Z,92.10
2018-05-08T18:41:17.527Z,92.10
2018-05-08T18:43:47.382Z,92.10
2018-05-08T18:46:17.149Z,92.00
2018-05-08T18:48:46.575Z,92.00
2018-05-08T18:51:15.587Z,92.00
2018-05-08T18:53:44.635Z,91.70
2018-05-08T18:56:14.384Z,91.60
2018-05-08T18:58:48.883Z,91.60
2018-05-08T19:01:18.088Z,92.00
2018-05-08T19:03:47.369Z,92.10
2018-05-08T19:06:16.474Z,92.10
2018-05-08T19:08:45.607Z,92.20
2018-05-08T19:11:20.145Z,92.20
2018-05-08T19:13:49.945Z,92.30
2018-05-08T19:16:19.131Z,92.30
2018-05-08T19:18:53.575Z,92.50
2018-05-08T19:21:22.837Z,92.50
2018-05-08T19:23:57.523Z,92.70
2018-05-08T19:26:26.674Z,92.60
2018-05-08T19:29:01.224Z,92.60
2018-05-08T19:31:30.246Z,92.80
2018-05-08T19:34:00.160Z,92.70
2018-05-08T19:36:34.704Z,92.60
2018-05-08T19:39:04.143Z,92.60
2018-05-08T19:41:33.243Z,92.60
2018-05-08T19:44:03.231Z,92.90
2018-05-08T19:46:32.389Z,92.90
2018-05-08T19:49:02.071Z,92.50
2018-05-08T19:51:30.979Z,92.50
2018-05-08T19:53:59.864Z,92.20
2018-05-08T19:56:28.740Z,92.20
2018-05-08T19:58:58.423Z,91.50
2018-05-08T20:01:27.301Z,91.50
2018-05-08T20:03:56.206Z,90.80
2018-05-08T20:06:25.332Z,90.80
2018-05-08T20:08:54.214Z,91.10
2018-05-08T20:11:23.110Z,90.70
2018-05-08T20:13:52.867Z,90.50
2018-05-08T20:16:21.743Z,90.50
2018-05-08T20:18:50.628Z,90.40
2018-05-08T20:21:19.497Z,90.40
2018-05-08T20:23:48.461Z,90.30
2018-05-08T20:26:17.332Z,90.30
2018-05-08T20:28:46.241Z,90.30
2018-05-08T20:31:15.169Z,90.30
2018-05-08T20:33:44.125Z,90.40
2018-05-08T20:36:13.246Z,90.40
2018-05-08T20:38:42.104Z,90.80
2018-05-08T20:41:10.963Z,90.90
2018-05-08T20:43:39.872Z,91.00
2018-05-08T20:46:09.146Z,91.10
2018-05-08T20:48:38.077Z,91.30
2018-05-08T20:51:07.732Z,91.00
2018-05-08T20:53:36.664Z,91.00
2018-05-08T20:56:06.291Z,90.80
2018-05-08T20:58:35.192Z,90.80
2018-05-08T21:01:04.207Z,90.90
2018-05-08T21:03:33.012Z,90.90
2018-05-08T21:06:01.890Z,90.60
2018-05-08T21:08:30.771Z,90.50
2018-05-08T21:10:59.687Z,90.40
2018-05-08T21:13:29.344Z,90.30
2018-05-08T21:15:58.235Z,90.30
2018-05-08T21:18:27.111Z,90.60
2018-05-08T21:20:56.809Z,90.90
2018-05-08T21:23:25.700Z,90.80
2018-05-08T21:25:55.339Z,90.80
2018-05-08T21:28:29.767Z,90.80
2018-05-08T21:31:04.294Z,91.10
2018-05-08T21:33:33.348Z,91.20
2018-05-08T21:36:02.234Z,91.40
2018-05-08T21:38:31.151Z,91.70
2018-05-08T21:41:00.032Z,91.90
2018-05-08T21:43:28.905Z,92.30
2018-05-08T21:45:57.820Z,92.80
2018-05-08T21:48:26.702Z,92.60
2018-05-08T21:50:55.588Z,92.50
2018-05-08T21:53:24.507Z,92.50
2018-05-08T21:55:54.244Z,92.40
2018-05-08T21:58:23.106Z,92.60
2018-05-08T22:00:51.995Z,92.80
2018-05-08T22:03:20.863Z,93.20
2018-05-08T22:05:49.747Z,93.30
2018-05-08T22:08:18.614Z,93.60
2018-05-08T22:10:47.532Z,93.20
2018-05-08T22:13:16.395Z,93.10
2018-05-08T22:15:46.373Z,93.20
2018-05-08T22:18:16.102Z,93.20
2018-05-08T22:20:45.079Z,93.30
2018-05-08T22:23:42.604Z,93.70
2018-05-08T22:29:03.147Z,94.30
2018-05-08T22:31:32.176Z,94.50
2018-05-08T22:34:07.275Z,94.80
2018-05-08T22:36:36.144Z,94.90
2018-05-08T22:39:11.545Z,95.00
2018-05-08T22:41:40.420Z,95.00
2018-05-08T22:44:09.293Z,95.20
2018-05-08T22:46:38.187Z,95.10
2018-05-08T22:49:07.076Z,95.20
2018-05-08T22:51:36.011Z,95.30
2018-05-08T22:54:04.904Z,95.50
2018-05-08T22:56:33.817Z,95.60
2018-05-08T22:59:03.447Z,95.20
2018-05-08T23:01:32.323Z,95.20
2018-05-08T23:04:01.256Z,95.20
2018-05-08T23:06:30.891Z,95.40
2018-05-08T23:08:59.783Z,95.40
2018-05-08T23:11:28.714Z,95.50
2018-05-08T23:13:57.624Z,95.50
2018-05-08T23:16:26.503Z,95.60
2018-05-08T23:18:55.407Z,95.80
2018-05-08T23:21:24.319Z,95.80
2018-05-08T23:23:53.176Z,95.90
2018-05-08T23:26:22.819Z,95.80
2018-05-08T23:28:51.683Z,95.80
2018-05-08T23:31:20.557Z,95.90
2018-05-08T23:33:49.435Z,96.00
2018-05-08T23:36:18.323Z,96.00
2018-05-08T23:38:47.189Z,95.90
2018-05-08T23:41:16.053Z,96.00
2018-05-08T23:43:44.945Z,96.00
2018-05-08T23:46:13.819Z,96.10
2018-05-08T23:48:42.710Z,96.00
2018-05-08T23:51:11.603Z,96.20
2018-05-08T23:53:40.474Z,96.10
2018-05-08T23:56:09.372Z,96.00
2018-05-08T23:58:39.004Z,95.80
